Terminal Aerodrome Forecast
Issued by NWS

Home | Current Version | Previous Version | Text Only | Print | Product List | Glossary On
Versions: 1 2 3 4 5 6 7 8 9 10 11 12 13 14 15 16 17 18
000
FTUS45 KFGZ 280538
TAFGCN
TAF
KGCN 280538Z 2806/2906 VRB05KT P6SM VCSH FEW050 BKN120
      TEMPO 2806/2807 -TSRA BKN060CB
     FM281800 VRB05KT P6SM VCTS FEW035 SCT050CB
      TEMPO 2819/2823 VRB15G25KT 5SM TSRA BKN035CB
     FM282300 VRB05KT P6SM SCT050 BKN100=

USA.gov is the U.S. government's official web portal to all federal, state and local government web resources and services.